Time;durP1;ratioP1;P1;durP2;ratioP2;P2;SDS_P1;SDS_P2;PMS_P1;PMS_P2;Temp;Humidity;BMP_temperature;BMP_pressure;BME280_temperature;BME280_humidity;BME280_pressure;Samples;Min_cycle;Max_cycle;Signal;HPM_P1;HPM_P2
2022/12/03 00:02:08;;;;;;;35.08;18.13;;;;;;;;;;4984240;28;20029;-63
2022/12/03 00:04:34;;;;;;;36.40;18.92;;;;;;;;;;4993401;28;20044;-65
2022/12/03 00:06:59;;;;;;;39.17;18.70;;;;;;;;;;4997350;28;20068;-65
2022/12/03 00:09:24;;;;;;;37.50;18.88;;;;;;;;;;4984625;28;20038;-65
2022/12/03 00:11:52;;;;;;;36.70;18.23;;;;;;;;;;4980020;28;20083;-65
2022/12/03 00:14:17;;;;;;;36.88;18.52;;;;;;;;;;4983759;28;20025;-65
2022/12/03 00:16:42;;;;;;;35.95;18.30;;;;;;;;;;4984766;28;20060;-65
2022/12/03 00:19:08;;;;;;;37.25;18.92;;;;;;;;;;4983529;28;20034;-65
2022/12/03 00:21:33;;;;;;;39.22;19.13;;;;;;;;;;4980308;28;22228;-65
2022/12/03 00:23:58;;;;;;;39.83;18.20;;;;;;;;;;4983615;28;20049;-65
2022/12/03 00:26:23;;;;;;;41.13;19.65;;;;;;;;;;4982710;28;20025;-65
2022/12/03 00:28:49;;;;;;;38.55;18.25;;;;;;;;;;4985066;28;20231;-64
2022/12/03 00:31:14;;;;;;;37.13;19.27;;;;;;;;;;4982734;28;20918;-64
2022/12/03 00:33:40;;;;;;;42.50;20.80;;;;;;;;;;4983225;28;20034;-64
2022/12/03 00:36:05;;;;;;;37.72;19.05;;;;;;;;;;4982280;28;20837;-64
2022/12/03 00:38:31;;;;;;;33.75;17.80;;;;;;;;;;4981760;28;20767;-64
2022/12/03 00:40:59;;;;;;;37.13;18.48;;;;;;;;;;4982094;28;20034;-64
2022/12/03 00:43:24;;;;;;;39.60;18.65;;;;;;;;;;4981881;28;20040;-64
2022/12/03 00:45:50;;;;;;;38.92;18.60;;;;;;;;;;4983916;28;20230;-64
2022/12/03 00:48:17;;;;;;;37.50;18.15;;;;;;;;;;4984063;28;20111;-64
2022/12/03 00:50:42;;;;;;;38.92;18.13;;;;;;;;;;4982911;28;20073;-64
2022/12/03 00:53:08;;;;;;;38.63;18.70;;;;;;;;;;4981678;28;20048;-64
2022/12/03 00:55:33;;;;;;;40.13;18.58;;;;;;;;;;4983750;28;20041;-64
2022/12/03 00:57:59;;;;;;;37.83;18.90;;;;;;;;;;4982434;28;20076;-64
2022/12/03 01:00:25;;;;;;;37.22;18.63;;;;;;;;;;4976476;28;20077;-63
2022/12/03 01:02:51;;;;;;;34.72;17.90;;;;;;;;;;4981032;28;20734;-64
2022/12/03 01:05:17;;;;;;;37.20;17.90;;;;;;;;;;4980609;28;20054;-64
2022/12/03 01:07:43;;;;;;;36.63;18.23;;;;;;;;;;4997106;28;20474;-63
2022/12/03 01:10:08;;;;;;;36.78;18.88;;;;;;;;;;4982226;28;20046;-64
2022/12/03 01:12:36;;;;;;;37.22;18.77;;;;;;;;;;4981157;28;20498;-64
2022/12/03 01:15:05;;;;;;;35.83;18.38;;;;;;;;;;4980126;28;20041;-64
2022/12/03 01:17:30;;;;;;;33.03;17.80;;;;;;;;;;4979527;28;20037;-64
2022/12/03 01:19:56;;;;;;;37.08;18.23;;;;;;;;;;4982212;28;20048;-64
2022/12/03 01:22:22;;;;;;;33.83;17.40;;;;;;;;;;4986731;28;20727;-66
2022/12/03 01:24:47;;;;;;;34.63;18.45;;;;;;;;;;4970088;28;20127;-64
2022/12/03 01:27:13;;;;;;;36.80;18.30;;;;;;;;;;4981702;28;20079;-65
2022/12/03 01:29:38;;;;;;;34.05;17.73;;;;;;;;;;5015082;28;20080;-65
2022/12/03 01:32:15;;;;;;;38.58;19.35;;;;;;;;;;4997556;28;20040;-65
2022/12/03 01:34:48;;;;;;;38.33;19.40;;;;;;;;;;4982134;28;20076;-65
2022/12/03 01:37:16;;;;;;;36.17;18.65;;;;;;;;;;4993921;28;20038;-64
2022/12/03 01:39:41;;;;;;;37.47;18.70;;;;;;;;;;5002701;28;20040;-64
2022/12/03 01:42:33;;;;;;;34.58;18.17;;;;;;;;;;5003735;28;20065;-66
2022/12/03 01:44:59;;;;;;;38.63;19.33;;;;;;;;;;5000498;28;20041;-65
2022/12/03 01:47:26;;;;;;;37.08;18.45;;;;;;;;;;5002604;28;21172;-65
2022/12/03 01:49:58;;;;;;;35.45;18.83;;;;;;;;;;5006891;28;20040;-65
2022/12/03 01:52:27;;;;;;;34.30;17.88;;;;;;;;;;4993181;28;20045;-65
2022/12/03 01:54:56;;;;;;;33.88;18.25;;;;;;;;;;4985534;28;20041;-65
2022/12/03 01:57:26;;;;;;;34.13;17.83;;;;;;;;;;4985765;28;20037;-65
2022/12/03 01:59:52;;;;;;;37.38;19.25;;;;;;;;;;4986141;28;20044;-65
2022/12/03 02:02:23;;;;;;;38.20;19.80;;;;;;;;;;4986287;28;20037;-64
2022/12/03 02:04:49;;;;;;;37.88;18.67;;;;;;;;;;4982760;28;20135;-65
2022/12/03 02:07:15;;;;;;;37.60;18.63;;;;;;;;;;4987141;28;20124;-65
2022/12/03 02:09:41;;;;;;;39.70;19.95;;;;;;;;;;4986397;28;20036;-65
2022/12/03 02:12:06;;;;;;;40.97;19.45;;;;;;;;;;4986990;28;20045;-65
2022/12/03 02:14:31;;;;;;;38.70;19.80;;;;;;;;;;4985857;28;20125;-65
2022/12/03 02:16:57;;;;;;;37.42;18.98;;;;;;;;;;4985471;28;21162;-64
2022/12/03 02:19:26;;;;;;;38.50;18.33;;;;;;;;;;4986207;28;20127;-65
2022/12/03 02:21:57;;;;;;;39.78;19.00;;;;;;;;;;5018021;28;22314;-65
2022/12/03 02:24:32;;;;;;;40.53;19.30;;;;;;;;;;4986693;28;20053;-64
2022/12/03 02:26:57;;;;;;;44.35;20.77;;;;;;;;;;4984174;28;20039;-65
2022/12/03 02:29:23;;;;;;;45.25;20.40;;;;;;;;;;4983369;28;20657;-65
2022/12/03 02:31:48;;;;;;;47.10;21.50;;;;;;;;;;4986122;28;20044;-65
2022/12/03 02:34:32;;;;;;;45.28;20.63;;;;;;;;;;4986114;28;20053;-65
2022/12/03 02:36:58;;;;;;;41.03;19.75;;;;;;;;;;4986345;28;20044;-65
2022/12/03 02:39:26;;;;;;;45.22;21.20;;;;;;;;;;4985454;28;20271;-65
2022/12/03 02:44:35;;;;;;;44.42;20.10;;;;;;;;;;4983070;28;20042;-65
2022/12/03 02:47:01;;;;;;;43.20;20.33;;;;;;;;;;4983740;28;20497;-65
2022/12/03 02:49:29;;;;;;;51.47;22.08;;;;;;;;;;4985160;28;20034;-65
2022/12/03 02:51:57;;;;;;;47.20;21.38;;;;;;;;;;4983933;28;20044;-65
2022/12/03 02:54:22;;;;;;;46.97;21.05;;;;;;;;;;4986026;28;21058;-65
2022/12/03 02:56:50;;;;;;;46.28;20.67;;;;;;;;;;4986705;28;20103;-65
2022/12/03 02:59:16;;;;;;;43.13;21.17;;;;;;;;;;4984375;28;20029;-65
2022/12/03 03:01:42;;;;;;;46.55;20.70;;;;;;;;;;4981611;28;20030;-65
2022/12/03 03:04:08;;;;;;;53.75;20.50;;;;;;;;;;4985030;28;20057;-65
2022/12/03 03:06:33;;;;;;;44.53;20.15;;;;;;;;;;4984292;28;20052;-65
2022/12/03 03:08:58;;;;;;;43.90;20.25;;;;;;;;;;4985637;28;20072;-64
2022/12/03 03:11:24;;;;;;;46.20;20.55;;;;;;;;;;4985537;28;20030;-65
2022/12/03 03:13:49;;;;;;;47.30;21.65;;;;;;;;;;4985417;28;20034;-65
2022/12/03 03:16:15;;;;;;;47.40;20.77;;;;;;;;;;4999093;28;20037;-65
2022/12/03 03:18:40;;;;;;;47.72;20.35;;;;;;;;;;5009424;28;20048;-65
2022/12/03 03:21:09;;;;;;;45.45;20.63;;;;;;;;;;4986895;28;20048;-65
2022/12/03 03:23:34;;;;;;;43.75;19.60;;;;;;;;;;4995547;28;20049;-65
2022/12/03 03:26:04;;;;;;;49.38;19.95;;;;;;;;;;4983483;28;20053;-65
2022/12/03 03:28:30;;;;;;;46.67;21.67;;;;;;;;;;4996942;28;20037;-65
2022/12/03 03:30:56;;;;;;;46.70;21.95;;;;;;;;;;5004166;28;20096;-64
2022/12/03 03:33:21;;;;;;;48.15;21.38;;;;;;;;;;5003955;28;20037;-65
2022/12/03 03:35:47;;;;;;;44.92;20.55;;;;;;;;;;5004589;28;20060;-65
2022/12/03 03:38:14;;;;;;;45.30;20.98;;;;;;;;;;5004972;28;20041;-65
2022/12/03 03:40:39;;;;;;;40.08;19.00;;;;;;;;;;5001490;28;20166;-63
2022/12/03 03:43:07;;;;;;;43.33;20.23;;;;;;;;;;5018449;28;20099;-63
2022/12/03 03:45:32;;;;;;;43.88;20.20;;;;;;;;;;5001592;28;20877;-66
2022/12/03 03:47:58;;;;;;;48.63;21.42;;;;;;;;;;4998574;28;20040;-63
2022/12/03 03:50:28;;;;;;;44.33;21.00;;;;;;;;;;5003869;28;20114;-65
2022/12/03 03:52:57;;;;;;;39.50;19.52;;;;;;;;;;5002195;28;20186;-65
2022/12/03 03:55:23;;;;;;;42.08;19.63;;;;;;;;;;4998946;28;20044;-65
2022/12/03 03:57:48;;;;;;;41.28;20.38;;;;;;;;;;5004589;28;20057;-65
2022/12/03 04:00:14;;;;;;;42.20;20.60;;;;;;;;;;5003383;28;20029;-65
2022/12/03 04:02:40;;;;;;;39.50;20.58;;;;;;;;;;5003370;28;20539;-64
2022/12/03 04:05:10;;;;;;;42.55;19.23;;;;;;;;;;5001643;28;20045;-62
2022/12/03 04:07:35;;;;;;;38.10;19.63;;;;;;;;;;5004183;28;20041;-65
2022/12/03 04:12:54;;;;;;;43.00;20.30;;;;;;;;;;4999831;28;20067;-65
2022/12/03 04:12:55;;;;;;;41.38;20.20;;;;;;;;;;5002447;28;20037;-64
2022/12/03 04:15:21;;;;;;;40.35;21.00;;;;;;;;;;5000074;28;20060;-65
2022/12/03 04:18:41;;;;;;;41.25;20.55;;;;;;;;;;5025297;28;20048;-64
2022/12/03 04:20:35;;;;;;;38.95;19.98;;;;;;;;;;5000428;28;20107;-65
2022/12/03 04:23:01;;;;;;;39.58;19.58;;;;;;;;;;5003623;28;20041;-64
2022/12/03 04:30:54;;;;;;;41.35;21.90;;;;;;;;;;5001801;28;20833;-67
2022/12/03 04:36:08;;;;;;;38.65;20.88;;;;;;;;;;4999466;28;20514;-67
2022/12/03 04:38:33;;;;;;;40.03;22.35;;;;;;;;;;5001916;28;20047;-67
2022/12/03 04:41:05;;;;;;;38.58;20.15;;;;;;;;;;5002416;28;20596;-67
2022/12/03 04:43:32;;;;;;;40.97;20.33;;;;;;;;;;5003122;28;20037;-67
2022/12/03 04:45:58;;;;;;;36.85;20.27;;;;;;;;;;4999995;28;20892;-66
2022/12/03 04:48:23;;;;;;;34.60;19.20;;;;;;;;;;5003413;28;20062;-67
2022/12/03 04:50:49;;;;;;;37.97;19.63;;;;;;;;;;5002212;28;21265;-67
2022/12/03 04:53:14;;;;;;;36.35;19.10;;;;;;;;;;5003333;28;20048;-67
2022/12/03 04:55:40;;;;;;;36.72;19.52;;;;;;;;;;5001752;28;20094;-67
2022/12/03 04:58:05;;;;;;;34.33;18.52;;;;;;;;;;4982188;28;21349;-64
2022/12/03 05:00:30;;;;;;;37.28;20.08;;;;;;;;;;5018123;28;20044;-65
2022/12/03 05:02:56;;;;;;;37.72;19.90;;;;;;;;;;5002309;28;20190;-64
2022/12/03 05:05:24;;;;;;;38.63;20.65;;;;;;;;;;5001694;28;20055;-65
2022/12/03 05:07:49;;;;;;;36.20;19.67;;;;;;;;;;5001695;28;20033;-65
2022/12/03 05:10:14;;;;;;;38.65;19.73;;;;;;;;;;5003327;28;20041;-65
2022/12/03 05:12:40;;;;;;;37.85;20.13;;;;;;;;;;4998780;28;20041;-65
2022/12/03 05:15:05;;;;;;;39.38;21.38;;;;;;;;;;5001996;28;20037;-66
2022/12/03 05:17:31;;;;;;;38.67;21.10;;;;;;;;;;5014901;28;20041;-65
2022/12/03 05:22:40;;;;;;;38.47;21.15;;;;;;;;;;5001115;28;20468;-63
2022/12/03 05:25:06;;;;;;;38.00;20.77;;;;;;;;;;4981859;28;20057;-63
2022/12/03 05:27:31;;;;;;;40.50;22.05;;;;;;;;;;5013844;28;20037;-65
2022/12/03 05:29:56;;;;;;;38.95;20.52;;;;;;;;;;4981924;28;20045;-66
2022/12/03 05:32:22;;;;;;;42.65;22.13;;;;;;;;;;4982976;28;20045;-65
2022/12/03 05:34:47;;;;;;;38.47;20.58;;;;;;;;;;5014854;28;20142;-64
2022/12/03 05:37:12;;;;;;;39.97;21.83;;;;;;;;;;4982653;28;20041;-64
2022/12/03 05:39:37;;;;;;;40.05;21.00;;;;;;;;;;4982402;28;20708;-64
2022/12/03 05:44:49;;;;;;;38.40;21.20;;;;;;;;;;4983218;28;20106;-65
2022/12/03 05:47:17;;;;;;;40.03;21.08;;;;;;;;;;4996390;28;20037;-63
2022/12/03 05:49:43;;;;;;;36.60;19.80;;;;;;;;;;4984038;28;22307;-65
2022/12/03 05:52:08;;;;;;;33.53;20.63;;;;;;;;;;4982356;28;20052;-65
2022/12/03 05:54:33;;;;;;;40.10;20.88;;;;;;;;;;4982599;28;20045;-65
2022/12/03 05:56:59;;;;;;;39.35;21.25;;;;;;;;;;4980059;28;20041;-64
2022/12/03 05:59:25;;;;;;;38.25;20.88;;;;;;;;;;4982486;28;20058;-63
2022/12/03 06:01:50;;;;;;;37.97;20.83;;;;;;;;;;4982484;28;20113;-64
2022/12/03 06:04:16;;;;;;;37.20;20.17;;;;;;;;;;4981953;28;20048;-63
2022/12/03 06:06:41;;;;;;;37.25;20.83;;;;;;;;;;4981192;28;20097;-63
2022/12/03 06:09:07;;;;;;;39.65;21.80;;;;;;;;;;4979454;28;20095;-65
2022/12/03 06:11:33;;;;;;;37.20;20.38;;;;;;;;;;4977758;28;20709;-65
2022/12/03 06:13:59;;;;;;;38.25;20.13;;;;;;;;;;4981755;28;20111;-65
2022/12/03 06:16:25;;;;;;;37.25;20.70;;;;;;;;;;4984683;28;20034;-65
2022/12/03 06:18:50;;;;;;;35.92;20.15;;;;;;;;;;4981480;28;20766;-65
2022/12/03 06:21:15;;;;;;;38.53;21.08;;;;;;;;;;4979852;28;20646;-64
2022/12/03 06:23:44;;;;;;;37.50;20.75;;;;;;;;;;4983706;28;20041;-65
2022/12/03 06:26:13;;;;;;;37.70;20.58;;;;;;;;;;4980387;28;20061;-65
2022/12/03 06:28:39;;;;;;;34.85;19.40;;;;;;;;;;4980231;28;20978;-63
2022/12/03 06:31:04;;;;;;;33.92;19.27;;;;;;;;;;4977157;28;20041;-65
2022/12/03 06:33:29;;;;;;;36.35;21.20;;;;;;;;;;4980343;28;21019;-65
2022/12/03 06:35:57;;;;;;;36.67;20.27;;;;;;;;;;4983959;28;20041;-66
2022/12/03 06:38:22;;;;;;;33.95;19.15;;;;;;;;;;4984555;28;20853;-63
2022/12/03 06:40:47;;;;;;;34.92;19.58;;;;;;;;;;4981469;28;20072;-63
2022/12/03 06:43:13;;;;;;;36.67;20.23;;;;;;;;;;4979273;28;20045;-66
2022/12/03 06:45:39;;;;;;;35.15;19.80;;;;;;;;;;4982262;28;20223;-65
2022/12/03 06:48:04;;;;;;;32.28;19.42;;;;;;;;;;4984012;28;20884;-66
2022/12/03 06:50:29;;;;;;;36.33;20.15;;;;;;;;;;4982664;28;20104;-65
2022/12/03 06:52:55;;;;;;;36.60;20.02;;;;;;;;;;4981382;28;20037;-65
2022/12/03 06:55:21;;;;;;;32.30;18.85;;;;;;;;;;4994530;28;20121;-64
2022/12/03 06:57:46;;;;;;;35.45;19.52;;;;;;;;;;5003163;28;20035;-64
2022/12/03 07:00:16;;;;;;;36.30;20.00;;;;;;;;;;4991129;28;22276;-64
2022/12/03 07:02:43;;;;;;;36.90;20.60;;;;;;;;;;4998808;28;20045;-65
2022/12/03 07:05:08;;;;;;;39.25;21.70;;;;;;;;;;5001311;28;20063;-65
2022/12/03 07:07:34;;;;;;;37.95;21.10;;;;;;;;;;5001771;28;20044;-65
2022/12/03 07:10:00;;;;;;;37.30;20.30;;;;;;;;;;5019233;28;20720;-65
2022/12/03 07:12:26;;;;;;;36.17;20.15;;;;;;;;;;5002729;28;20083;-64
2022/12/03 07:14:51;;;;;;;36.47;20.67;;;;;;;;;;5013434;28;20077;-66
2022/12/03 07:17:17;;;;;;;38.00;21.05;;;;;;;;;;5014983;28;20036;-65
2022/12/03 07:19:43;;;;;;;40.30;21.25;;;;;;;;;;4983400;28;20045;-65
2022/12/03 07:22:26;;;;;;;39.92;21.63;;;;;;;;;;4985411;28;20049;-65
2022/12/03 07:24:51;;;;;;;38.20;20.58;;;;;;;;;;4999399;28;20053;-65
2022/12/03 07:27:16;;;;;;;32.95;19.88;;;;;;;;;;4987592;28;20037;-65
2022/12/03 07:29:42;;;;;;;36.30;20.30;;;;;;;;;;4998643;28;20045;-64
2022/12/03 07:32:07;;;;;;;37.90;19.75;;;;;;;;;;5001862;28;20042;-63
2022/12/03 07:34:32;;;;;;;38.47;21.30;;;;;;;;;;5004092;28;20124;-63
2022/12/03 07:36:58;;;;;;;36.67;20.67;;;;;;;;;;5003304;28;20040;-63
2022/12/03 07:39:23;;;;;;;35.13;20.40;;;;;;;;;;4998886;28;20530;-63
2022/12/03 07:41:48;;;;;;;37.40;20.17;;;;;;;;;;5003313;28;20051;-64
2022/12/03 07:44:14;;;;;;;35.47;19.95;;;;;;;;;;5001047;28;20908;-62
2022/12/03 07:46:39;;;;;;;37.42;20.50;;;;;;;;;;4998755;28;20071;-64
2022/12/03 07:49:07;;;;;;;35.28;20.75;;;;;;;;;;5007619;28;20101;-64
2022/12/03 07:51:32;;;;;;;37.25;19.90;;;;;;;;;;4998241;28;20059;-62
2022/12/03 07:53:57;;;;;;;36.08;19.77;;;;;;;;;;4996418;28;20604;-64
2022/12/03 07:56:25;;;;;;;34.40;19.17;;;;;;;;;;5020209;28;20078;-64
2022/12/03 07:58:50;;;;;;;37.28;20.20;;;;;;;;;;5001153;28;20181;-64
2022/12/03 08:01:15;;;;;;;38.00;21.13;;;;;;;;;;5002525;28;20080;-63
2022/12/03 08:03:44;;;;;;;34.58;20.05;;;;;;;;;;5005380;28;20041;-63
2022/12/03 08:06:09;;;;;;;35.25;20.00;;;;;;;;;;4980755;28;20453;-62
2022/12/03 08:08:42;;;;;;;;;;;;;;;;;;4980920;28;20245;-64
2022/12/03 08:11:18;;;;;;;34.95;19.85;;;;;;;;;;4981342;28;20246;-64
2022/12/03 08:13:44;;;;;;;32.15;19.13;;;;;;;;;;4980854;28;20033;-63
2022/12/03 08:16:16;;;;;;;32.53;19.17;;;;;;;;;;4980853;28;20111;-62
2022/12/03 08:18:42;;;;;;;36.28;20.25;;;;;;;;;;5010484;28;20318;-62
2022/12/03 08:21:12;;;;;;;36.67;20.05;;;;;;;;;;4982466;28;20182;-62
2022/12/03 08:23:37;;;;;;;34.70;19.05;;;;;;;;;;5001100;28;20039;-64
2022/12/03 08:26:11;;;;;;;35.78;19.80;;;;;;;;;;4983145;28;20384;-64
2022/12/03 08:28:36;;;;;;;36.08;20.33;;;;;;;;;;5014279;28;20044;-63
2022/12/03 08:31:06;;;;;;;33.25;19.15;;;;;;;;;;4993973;28;20056;-63
2022/12/03 08:33:34;;;;;;;36.65;19.40;;;;;;;;;;4981889;28;20048;-63
2022/12/03 08:36:00;;;;;;;34.53;19.65;;;;;;;;;;4979487;28;20847;-63
2022/12/03 08:38:25;;;;;;;35.15;20.88;;;;;;;;;;4980210;28;20033;-63
2022/12/03 08:40:54;;;;;;;38.42;21.60;;;;;;;;;;4974228;28;20060;-62
2022/12/03 08:43:19;;;;;;;37.55;21.73;;;;;;;;;;4977052;28;20364;-62
2022/12/03 08:45:45;;;;;;;35.92;20.60;;;;;;;;;;4975763;28;20041;-64
2022/12/03 08:48:19;;;;;;;37.17;20.73;;;;;;;;;;4978463;28;20040;-63
2022/12/03 08:50:44;;;;;;;36.80;21.67;;;;;;;;;;4975531;28;20348;-64
2022/12/03 08:53:10;;;;;;;37.53;21.52;;;;;;;;;;4976973;28;21743;-63
2022/12/03 08:55:36;;;;;;;37.08;21.27;;;;;;;;;;4978366;28;20546;-62
2022/12/03 08:58:22;;;;;;;37.42;21.38;;;;;;;;;;4979181;28;20033;-62
2022/12/03 09:00:50;;;;;;;40.25;21.83;;;;;;;;;;4978112;28;20068;-62
2022/12/03 09:03:17;;;;;;;40.45;22.33;;;;;;;;;;4976812;28;20095;-63
2022/12/03 09:05:42;;;;;;;39.15;23.35;;;;;;;;;;4980871;28;20253;-62
2022/12/03 09:08:08;;;;;;;40.85;22.35;;;;;;;;;;4978846;28;20038;-64
2022/12/03 09:10:33;;;;;;;43.85;24.63;;;;;;;;;;4978571;28;20048;-64
2022/12/03 09:13:01;;;;;;;45.25;23.83;;;;;;;;;;4978854;28;20888;-64
2022/12/03 09:15:27;;;;;;;42.63;23.52;;;;;;;;;;4976863;28;20453;-63
2022/12/03 09:17:52;;;;;;;46.40;24.58;;;;;;;;;;4977782;28;20037;-64
2022/12/03 09:20:18;;;;;;;42.60;23.75;;;;;;;;;;5009367;28;20041;-64
2022/12/03 09:22:44;;;;;;;42.42;24.30;;;;;;;;;;4977621;28;20091;-63
2022/12/03 09:25:11;;;;;;;44.10;23.90;;;;;;;;;;4978078;28;20060;-63
2022/12/03 09:27:37;;;;;;;49.53;25.42;;;;;;;;;;4978402;28;20615;-63
2022/12/03 09:30:03;;;;;;;44.45;24.20;;;;;;;;;;4977565;28;20041;-64
2022/12/03 09:32:28;;;;;;;44.53;23.60;;;;;;;;;;4965325;28;20047;-63
2022/12/03 09:34:56;;;;;;;43.78;25.40;;;;;;;;;;5000453;28;20532;-64
2022/12/03 09:37:21;;;;;;;44.90;24.48;;;;;;;;;;4999245;28;20060;-64
2022/12/03 09:39:46;;;;;;;41.53;24.27;;;;;;;;;;5017638;22;20494;-64
2022/12/03 09:42:12;;;;;;;42.60;23.58;;;;;;;;;;4935916;28;20050;-63
2022/12/03 09:44:37;;;;;;;41.45;23.75;;;;;;;;;;4922566;28;20035;-63
2022/12/03 09:47:03;;;;;;;41.05;23.17;;;;;;;;;;4914195;28;20042;-64
2022/12/03 09:49:30;;;;;;;46.17;24.23;;;;;;;;;;4923505;28;20208;-64
2022/12/03 09:51:58;;;;;;;45.28;23.58;;;;;;;;;;4926001;28;20050;-64
2022/12/03 09:54:31;;;;;;;41.58;23.38;;;;;;;;;;4914968;28;20150;-62
2022/12/03 09:56:58;;;;;;;41.50;23.70;;;;;;;;;;4925380;28;20103;-62
2022/12/03 09:59:25;;;;;;;39.63;23.23;;;;;;;;;;4920049;28;20045;-62
2022/12/03 10:01:51;;;;;;;42.88;23.75;;;;;;;;;;4943303;28;20326;-64
2022/12/03 10:04:16;;;;;;;39.65;23.58;;;;;;;;;;4928456;28;20756;-65
2022/12/03 10:06:42;;;;;;;41.75;24.63;;;;;;;;;;4924432;28;20335;-63
2022/12/03 10:09:08;;;;;;;42.75;23.98;;;;;;;;;;4928707;28;20372;-63
2022/12/03 10:11:34;;;;;;;44.03;24.30;;;;;;;;;;4932002;28;20522;-63
2022/12/03 10:14:00;;;;;;;46.95;25.13;;;;;;;;;;4930405;28;20470;-63
2022/12/03 10:16:26;;;;;;;44.00;25.45;;;;;;;;;;4930538;28;20071;-63
2022/12/03 10:18:53;;;;;;;46.65;26.55;;;;;;;;;;4945681;28;20540;-63
2022/12/03 10:21:21;;;;;;;46.03;25.85;;;;;;;;;;4932554;28;20500;-62
2022/12/03 10:23:46;;;;;;;46.28;25.90;;;;;;;;;;4932527;28;20106;-63
2022/12/03 10:26:12;;;;;;;47.35;27.17;;;;;;;;;;4930864;28;20046;-63
2022/12/03 10:28:41;;;;;;;45.28;25.92;;;;;;;;;;4931462;28;20970;-63
2022/12/03 10:31:09;;;;;;;47.85;27.23;;;;;;;;;;4933047;28;20035;-62
2022/12/03 10:33:38;;;;;;;50.72;27.90;;;;;;;;;;4919517;28;20471;-62
2022/12/03 10:36:16;;;;;;;48.65;27.13;;;;;;;;;;4930103;28;20882;-65
2022/12/03 10:38:42;;;;;;;47.63;26.50;;;;;;;;;;4934417;28;20035;-64
2022/12/03 10:41:26;;;;;;;44.28;25.20;;;;;;;;;;4931124;28;20042;-64
2022/12/03 10:43:51;;;;;;;47.45;26.92;;;;;;;;;;4933619;28;20042;-64
2022/12/03 10:46:18;;;;;;;48.53;27.55;;;;;;;;;;4933601;28;20775;-63
2022/12/03 10:48:43;;;;;;;53.85;31.83;;;;;;;;;;4934585;28;20049;-65
2022/12/03 10:51:19;;;;;;;55.60;31.17;;;;;;;;;;4933029;28;20058;-64
2022/12/03 10:53:46;;;;;;;54.33;30.75;;;;;;;;;;4942581;28;20045;-64
2022/12/03 10:56:13;;;;;;;52.65;29.83;;;;;;;;;;4929594;28;20079;-64
2022/12/03 10:58:39;;;;;;;56.03;30.90;;;;;;;;;;4932185;28;20033;-64
2022/12/03 11:01:09;;;;;;;56.80;32.33;;;;;;;;;;4930152;28;20054;-64
2022/12/03 11:03:36;;;;;;;59.00;33.88;;;;;;;;;;4944534;28;20817;-64
2022/12/03 11:06:02;;;;;;;59.55;32.80;;;;;;;;;;4930851;28;20047;-65
2022/12/03 11:08:30;;;;;;;60.33;32.22;;;;;;;;;;4930858;28;20130;-65
2022/12/03 11:11:00;;;;;;;56.33;30.58;;;;;;;;;;4929469;28;20808;-65
2022/12/03 11:13:31;;;;;;;55.75;30.48;;;;;;;;;;4929245;28;20608;-64
2022/12/03 11:15:57;;;;;;;51.50;27.95;;;;;;;;;;4928867;28;20105;-65
2022/12/03 11:18:43;;;;;;;56.55;30.92;;;;;;;;;;4928514;28;20030;-63
2022/12/03 11:21:10;;;;;;;61.92;31.48;;;;;;;;;;4895383;28;20389;-63
2022/12/03 11:23:44;;;;;;;57.63;30.83;;;;;;;;;;4929077;28;20046;-65
2022/12/03 11:26:25;;;;;;;55.55;27.92;;;;;;;;;;4926285;28;20124;-65
2022/12/03 11:28:54;;;;;;;54.95;30.23;;;;;;;;;;4924725;28;20030;-62
2022/12/03 11:31:38;;;;;;;49.70;27.25;;;;;;;;;;4925254;28;20496;-63
2022/12/03 11:34:19;;;;;;;51.88;27.23;;;;;;;;;;4928031;28;20460;-65
2022/12/03 11:37:03;;;;;;;49.08;26.10;;;;;;;;;;4928606;28;20128;-63
2022/12/03 11:39:43;;;;;;;52.92;28.27;;;;;;;;;;4927437;28;20586;-63
2022/12/03 11:42:27;;;;;;;54.33;28.70;;;;;;;;;;4916768;28;22073;-64
2022/12/03 11:45:05;;;;;;;50.83;27.27;;;;;;;;;;4929335;28;22247;-65
2022/12/03 11:47:37;;;;;;;50.92;27.92;;;;;;;;;;4925248;28;20514;-64
2022/12/03 11:50:23;;;;;;;52.78;27.45;;;;;;;;;;4926844;28;20043;-65
2022/12/03 11:52:52;;;;;;;49.42;26.38;;;;;;;;;;4924977;28;20604;-65
2022/12/03 11:55:37;;;;;;;51.80;26.75;;;;;;;;;;4923678;28;20042;-64
2022/12/03 11:58:14;;;;;;;51.28;27.23;;;;;;;;;;4922466;28;20047;-64
2022/12/03 12:00:47;;;;;;;54.05;27.55;;;;;;;;;;4927362;28;20493;-64
2022/12/03 12:03:20;;;;;;;52.58;27.50;;;;;;;;;;4921788;28;20046;-63
2022/12/03 12:05:58;;;;;;;54.05;26.70;;;;;;;;;;4932540;28;20181;-62
2022/12/03 12:08:23;;;;;;;47.10;24.77;;;;;;;;;;4941309;28;20042;-63
2022/12/03 12:10:48;;;;;;;48.67;25.50;;;;;;;;;;4910927;28;20051;-65
2022/12/03 12:13:43;;;;;;;49.28;26.40;;;;;;;;;;4942759;28;20030;-65
2022/12/03 12:16:12;;;;;;;48.05;24.88;;;;;;;;;;4933240;28;20054;-63
2022/12/03 12:18:39;;;;;;;49.78;26.08;;;;;;;;;;4936997;28;21942;-64
2022/12/03 12:21:23;;;;;;;46.38;25.75;;;;;;;;;;4947084;28;20042;-64
2022/12/03 12:23:48;;;;;;;51.15;25.80;;;;;;;;;;4944978;28;20121;-63
2022/12/03 12:26:16;;;;;;;53.63;27.30;;;;;;;;;;4943284;28;20081;-64
2022/12/03 12:28:41;;;;;;;50.30;27.05;;;;;;;;;;4944197;28;20050;-63
2022/12/03 12:31:10;;;;;;;54.38;28.02;;;;;;;;;;4946808;28;20087;-62
2022/12/03 12:33:35;;;;;;;50.95;26.77;;;;;;;;;;4943847;28;20035;-64
2022/12/03 12:36:04;;;;;;;51.92;27.25;;;;;;;;;;4945652;28;20034;-64
2022/12/03 12:38:29;;;;;;;52.53;28.65;;;;;;;;;;4928882;28;20181;-64
2022/12/03 12:40:55;;;;;;;49.15;27.10;;;;;;;;;;4947801;28;20045;-64
2022/12/03 12:43:22;;;;;;;52.40;27.13;;;;;;;;;;4962071;28;20042;-63
2022/12/03 12:45:48;;;;;;;51.60;26.63;;;;;;;;;;4959799;28;20054;-64
2022/12/03 12:48:13;;;;;;;47.38;25.70;;;;;;;;;;4940063;28;20039;-62
2022/12/03 12:50:40;;;;;;;49.22;25.63;;;;;;;;;;4947875;28;20405;-64
2022/12/03 12:53:05;;;;;;;46.25;24.08;;;;;;;;;;4944523;28;20061;-64
2022/12/03 12:55:33;;;;;;;43.63;23.80;;;;;;;;;;4945396;28;20046;-64
2022/12/03 12:58:01;;;;;;;49.30;25.02;;;;;;;;;;4948796;28;20681;-63
2022/12/03 13:00:26;;;;;;;47.55;23.92;;;;;;;;;;4934564;28;20419;-63
2022/12/03 13:03:01;;;;;;;51.75;27.00;;;;;;;;;;4942937;28;20042;-66
2022/12/03 13:05:53;;;;;;;50.33;24.55;;;;;;;;;;4945058;28;20580;-63
2022/12/03 13:08:21;;;;;;;46.85;23.15;;;;;;;;;;4941358;28;20271;-64
2022/12/03 13:10:46;;;;;;;46.22;24.23;;;;;;;;;;4928472;28;20053;-64
2022/12/03 13:13:14;;;;;;;47.15;24.23;;;;;;;;;;4942241;28;20120;-64
2022/12/03 13:15:44;;;;;;;48.00;25.25;;;;;;;;;;4945195;28;20037;-64
2022/12/03 13:18:20;;;;;;;46.72;24.77;;;;;;;;;;4945990;28;20043;-64
2022/12/03 13:20:46;;;;;;;48.67;24.10;;;;;;;;;;4945165;28;20520;-64
2022/12/03 13:23:24;;;;;;;45.92;24.40;;;;;;;;;;4953431;28;20038;-64
2022/12/03 13:25:51;;;;;;;48.33;23.65;;;;;;;;;;4947435;28;20031;-64
2022/12/03 13:28:17;;;;;;;47.67;24.95;;;;;;;;;;4942535;28;20563;-64
2022/12/03 13:30:43;;;;;;;50.72;26.08;;;;;;;;;;4945173;28;20046;-65
2022/12/03 13:33:14;;;;;;;47.20;24.30;;;;;;;;;;4945708;28;20089;-64
2022/12/03 13:35:42;;;;;;;49.38;24.30;;;;;;;;;;4946516;28;20053;-64
2022/12/03 13:38:14;;;;;;;51.78;24.90;;;;;;;;;;4943626;28;20134;-64
2022/12/03 13:40:40;;;;;;;53.88;27.27;;;;;;;;;;4945234;28;20082;-65
2022/12/03 13:43:17;;;;;;;53.25;25.42;;;;;;;;;;4941542;28;20046;-64
2022/12/03 13:45:44;;;;;;;52.63;26.50;;;;;;;;;;4951884;28;20061;-64
2022/12/03 13:48:12;;;;;;;53.45;26.35;;;;;;;;;;4947873;28;20042;-64
2022/12/03 13:50:43;;;;;;;53.33;26.85;;;;;;;;;;4943027;28;20431;-64
2022/12/03 13:53:14;;;;;;;53.03;25.88;;;;;;;;;;4945491;28;20062;-63
2022/12/03 13:55:44;;;;;;;53.97;26.50;;;;;;;;;;4946218;28;20132;-64
2022/12/03 13:58:09;;;;;;;55.20;27.02;;;;;;;;;;4947898;28;20065;-64
2022/12/03 14:00:35;;;;;;;66.03;29.95;;;;;;;;;;4945398;28;20038;-64
2022/12/03 14:03:01;;;;;;;60.67;29.75;;;;;;;;;;4931102;28;20046;-62
2022/12/03 14:05:29;;;;;;;56.70;28.40;;;;;;;;;;4944128;28;20057;-65
2022/12/03 14:07:57;;;;;;;61.90;29.20;;;;;;;;;;4937645;28;20078;-64
2022/12/03 14:10:25;;;;;;;56.17;27.60;;;;;;;;;;4943994;28;21992;-65
2022/12/03 14:12:50;;;;;;;57.65;29.00;;;;;;;;;;4938039;28;20995;-65
2022/12/03 14:15:15;;;;;;;53.58;26.23;;;;;;;;;;4946699;28;20058;-64
2022/12/03 14:17:40;;;;;;;58.67;29.35;;;;;;;;;;4949130;28;20512;-64
2022/12/03 14:20:06;;;;;;;57.90;27.52;;;;;;;;;;4946654;28;20153;-65
2022/12/03 14:22:32;;;;;;;57.55;27.80;;;;;;;;;;4943159;28;20036;-64
2022/12/03 14:24:57;;;;;;;54.25;27.75;;;;;;;;;;4943907;28;20240;-64
2022/12/03 14:27:23;;;;;;;54.95;25.42;;;;;;;;;;4948515;28;20058;-65
2022/12/03 14:29:49;;;;;;;52.13;26.02;;;;;;;;;;4943405;28;20995;-64
2022/12/03 14:32:14;;;;;;;55.13;27.48;;;;;;;;;;4949421;28;20666;-64
2022/12/03 14:34:39;;;;;;;54.83;27.20;;;;;;;;;;4942416;28;20490;-64
2022/12/03 14:37:05;;;;;;;53.72;27.25;;;;;;;;;;4942582;28;20734;-64
2022/12/03 14:39:30;;;;;;;58.25;27.17;;;;;;;;;;4940249;28;20194;-64